Time;durP1;ratioP1;P1;durP2;ratioP2;P2;SDS_P1;SDS_P2;PMS_P1;PMS_P2;Temp;Humidity;BMP_temperature;BMP_pressure;BME280_temperature;BME280_humidity;BME280_pressure;Samples;Min_cycle;Max_cycle;Signal;HPM_P1;HPM_P2
2022/05/14 00:04:32;;;;;;;4.00;2.10;;;24.10;46.70;;;;;;220238;1270;22608;-60
2022/05/14 00:09:36;;;;;;;4.30;2.30;;;24.10;46.80;;;;;;220366;1270;25345;-60
2022/05/14 00:14:40;;;;;;;6.30;2.30;;;24.10;47.10;;;;;;220053;1268;25258;-58
2022/05/14 00:19:44;;;;;;;6.00;2.50;;;24.10;47.30;;;;;;220292;1271;23180;-61
2022/05/14 00:24:49;;;;;;;4.40;1.90;;;24.10;47.10;;;;;;220353;1270;22528;-60
2022/05/14 00:29:55;;;;;;;6.10;2.20;;;24.10;47.20;;;;;;220169;1268;22999;-60
2022/05/14 00:34:59;;;;;;;4.80;1.90;;;24.10;47.30;;;;;;220186;1271;22526;-61
2022/05/14 00:40:09;;;;;;;6.30;2.20;;;24.10;47.40;;;;;;220204;1268;25661;-59
2022/05/14 00:45:17;;;;;;;3.40;1.90;;;24.00;47.40;;;;;;220132;1270;22730;-59
2022/05/14 00:50:37;;;;;;;3.30;2.00;;;24.00;47.50;;;;;;220200;1267;25634;-59
2022/05/14 00:55:44;;;;;;;5.00;2.10;;;24.00;47.60;;;;;;220444;1267;24293;-61
2022/05/14 01:00:48;;;;;;;3.20;1.80;;;24.00;47.70;;;;;;220471;1267;22546;-60
2022/05/14 01:05:53;;;;;;;3.70;1.70;;;24.00;47.80;;;;;;220267;1267;25466;-60
2022/05/14 01:10:57;;;;;;;2.70;1.60;;;23.90;48.10;;;;;;220029;1270;22591;-59
2022/05/14 01:16:03;;;;;;;3.90;1.80;;;23.90;48.30;;;;;;220400;1271;22528;-60
2022/05/14 01:21:36;;;;;;;4.20;1.70;;;23.90;48.00;;;;;;220524;1269;24260;-59
2022/05/14 01:26:41;;;;;;;3.50;1.80;;;23.90;48.00;;;;;;219953;1271;24539;-62
2022/05/14 01:31:49;;;;;;;3.90;1.90;;;23.90;48.00;;;;;;220486;1268;22551;-59
2022/05/14 01:36:55;;;;;;;3.10;1.70;;;23.90;48.10;;;;;;220452;1271;25534;-61
2022/05/14 01:42:00;;;;;;;5.10;1.90;;;23.90;48.20;;;;;;220402;1270;22533;-60
2022/05/14 01:47:05;;;;;;;2.60;1.70;;;23.90;48.10;;;;;;219975;1271;22707;-60
2022/05/14 01:52:10;;;;;;;2.80;1.90;;;23.80;48.10;;;;;;220294;1268;24356;-61
2022/05/14 01:57:15;;;;;;;2.90;1.70;;;23.90;48.30;;;;;;220049;1271;22586;-61
2022/05/14 02:02:20;;;;;;;3.30;1.80;;;23.80;48.20;;;;;;220172;1268;22525;-62
2022/05/14 02:07:29;;;;;;;3.20;1.70;;;23.80;48.30;;;;;;220131;1271;22586;-60
2022/05/14 02:12:37;;;;;;;4.10;1.70;;;23.80;48.30;;;;;;220224;1268;24308;-58
2022/05/14 02:17:42;;;;;;;3.80;1.60;;;23.80;48.40;;;;;;220169;1268;25455;-60
2022/05/14 02:22:47;;;;;;;2.90;1.60;;;23.80;48.50;;;;;;220114;1268;24250;-57
2022/05/14 02:27:57;;;;;;;3.40;1.90;;;23.80;48.50;;;;;;220219;1271;22819;-58
2022/05/14 02:33:08;;;;;;;3.40;1.90;;;23.80;48.60;;;;;;220561;1271;24257;-64
2022/05/14 02:38:16;;;;;;;3.00;1.70;;;23.80;48.70;;;;;;220354;1268;22561;-60
2022/05/14 02:43:21;;;;;;;3.20;1.50;;;23.80;48.80;;;;;;220789;1270;22869;-57
2022/05/14 02:48:27;;;;;;;2.70;1.80;;;23.70;48.60;;;;;;220352;1269;23418;-58
2022/05/14 02:53:36;;;;;;;2.40;1.60;;;23.70;48.70;;;;;;220304;1268;24284;-59
2022/05/14 03:04:05;;;;;;;5.40;1.90;;;23.70;48.80;;;;;;220330;1268;22668;-60
2022/05/14 03:09:10;;;;;;;3.50;1.70;;;23.70;48.90;;;;;;220615;1270;23959;-63
2022/05/14 03:14:16;;;;;;;3.40;1.70;;;23.70;48.90;;;;;;220272;1268;22843;-61
2022/05/14 03:19:25;;;;;;;3.40;2.10;;;23.60;49.00;;;;;;220452;1269;23943;-59
2022/05/14 03:24:40;;;;;;;3.20;1.90;;;23.70;49.40;;;;;;220331;1269;22856;-58
2022/05/14 03:30:05;;;;;;;3.40;1.70;;;23.60;49.00;;;;;;220630;1268;24313;-61
2022/05/14 03:35:14;;;;;;;2.40;1.70;;;23.60;49.10;;;;;;220276;1268;24414;-63
2022/05/14 03:40:20;;;;;;;2.40;1.60;;;23.60;49.20;;;;;;220130;1268;26587;-60
2022/05/14 03:45:25;;;;;;;3.20;1.90;;;23.60;49.30;;;;;;220594;1268;22528;-59
2022/05/14 03:50:31;;;;;;;2.70;1.80;;;23.60;49.30;;;;;;220631;1267;25448;-61
2022/05/14 03:55:36;;;;;;;2.90;1.60;;;23.60;48.90;;;;;;220486;1268;26583;-56
2022/05/14 04:00:40;;;;;;;2.80;1.70;;;23.60;49.50;;;;;;220121;1267;24691;-61
2022/05/14 04:05:44;;;;;;;2.00;1.70;;;23.60;49.50;;;;;;220466;1268;22876;-61
2022/05/14 04:10:48;;;;;;;3.20;2.00;;;23.60;49.40;;;;;;220243;1268;22554;-59
2022/05/14 04:15:54;;;;;;;2.90;1.80;;;23.60;49.50;;;;;;220190;1267;25543;-61
2022/05/14 04:21:00;;;;;;;4.40;2.00;;;23.60;49.50;;;;;;220533;1268;25285;-60
2022/05/14 04:26:05;;;;;;;4.10;2.00;;;23.60;49.50;;;;;;220745;1267;22569;-60
2022/05/14 04:31:09;;;;;;;4.40;1.70;;;23.60;49.50;;;;;;220361;1267;25311;-61
2022/05/14 04:36:13;;;;;;;2.90;1.90;;;23.60;49.20;;;;;;219978;1268;22682;-60
2022/05/14 04:41:18;;;;;;;2.90;1.70;;;23.60;49.50;;;;;;220277;1268;22554;-59
2022/05/14 04:46:26;;;;;;;3.50;2.00;;;23.60;49.60;;;;;;219954;1268;24309;-61
2022/05/14 04:51:32;;;;;;;3.10;2.10;;;23.60;49.50;;;;;;219737;1270;25317;-61
2022/05/14 04:56:36;;;;;;;2.90;2.00;;;23.60;49.90;;;;;;220444;1268;22564;-61
2022/05/14 05:03:16;;;;;;;3.00;1.90;;;23.60;49.70;;;;;;220427;1268;22530;-61
2022/05/14 05:07:08;;;;;;;3.20;2.00;;;23.60;49.50;;;;;;219896;1270;22701;-60
2022/05/14 05:12:14;;;;;;;3.10;2.00;;;23.60;49.50;;;;;;219667;1272;25646;-60
2022/05/14 05:17:21;;;;;;;2.90;1.70;;;23.60;49.00;;;;;;219766;1270;22630;-59
2022/05/14 05:22:33;;;;;;;3.80;1.80;;;23.60;49.60;;;;;;219964;1270;24352;-62
2022/05/14 05:27:40;;;;;;;2.20;1.60;;;23.60;49.60;;;;;;220163;1268;25513;-60
2022/05/14 05:32:44;;;;;;;2.60;1.80;;;23.60;49.60;;;;;;219970;1268;25763;-61
2022/05/14 05:37:48;;;;;;;3.40;2.00;;;23.60;49.70;;;;;;220190;1268;22605;-60
2022/05/14 05:42:52;;;;;;;2.80;1.90;;;23.60;49.70;;;;;;220463;1268;22534;-61
2022/05/14 05:48:03;;;;;;;3.00;1.80;;;23.60;49.70;;;;;;220194;1270;22539;-61
2022/05/14 05:53:07;;;;;;;3.00;1.90;;;23.60;49.80;;;;;;220278;1268;22611;-60
2022/05/14 05:58:11;;;;;;;3.10;1.80;;;23.60;49.70;;;;;;220346;1268;22552;-59
2022/05/14 06:03:23;;;;;;;3.30;1.90;;;23.60;49.90;;;;;;220636;1268;24214;-60
2022/05/14 06:08:30;;;;;;;3.00;1.80;;;23.70;50.10;;;;;;220386;1268;25355;-60
2022/05/14 06:13:37;;;;;;;3.10;2.00;;;23.70;49.90;;;;;;220282;1268;24227;-58
2022/05/14 06:18:45;;;;;;;2.40;1.70;;;23.70;50.40;;;;;;220189;1268;24277;-59
2022/05/14 06:23:49;;;;;;;2.60;1.50;;;23.70;50.10;;;;;;220347;1268;24287;-62
2022/05/14 06:28:59;;;;;;;2.40;1.70;;;23.70;50.10;;;;;;220157;1268;24300;-61
2022/05/14 06:34:06;;;;;;;4.00;1.50;;;23.70;50.10;;;;;;220209;1268;22564;-60
2022/05/14 06:39:23;;;;;;;3.10;2.10;;;23.80;50.20;;;;;;220203;1268;24304;-59
2022/05/14 06:44:30;;;;;;;3.00;1.60;;;23.70;50.30;;;;;;220017;1267;22602;-61
2022/05/14 06:49:38;;;;;;;3.20;1.80;;;23.70;50.20;;;;;;220259;1268;22640;-61
2022/05/14 06:55:01;;;;;;;2.40;1.70;;;23.80;50.40;;;;;;220486;1268;22552;-60
2022/05/14 07:00:25;;;;;;;2.30;1.40;;;23.80;50.60;;;;;;220003;1268;24329;-60
2022/05/14 07:10:59;;;;;;;2.90;1.60;;;23.80;50.60;;;;;;220237;1268;25516;-60
2022/05/14 07:16:10;;;;;;;2.50;1.50;;;23.80;50.60;;;;;;220392;1268;25333;-61
2022/05/14 07:21:19;;;;;;;2.50;1.50;;;23.80;49.90;;;;;;220240;1268;364932;-59
2022/05/14 07:26:34;;;;;;;3.00;1.70;;;23.90;50.60;;;;;;220282;1268;26493;-59
2022/05/14 07:31:45;;;;;;;4.10;1.90;;;23.90;50.70;;;;;;220329;1268;22529;-59
2022/05/14 07:37:13;;;;;;;4.60;1.80;;;23.90;50.60;;;;;;220347;1268;25376;-60
2022/05/14 07:42:46;;;;;;;2.60;1.30;;;23.90;50.40;;;;;;220086;1268;24259;-61
2022/05/14 07:48:02;;;;;;;2.80;1.60;;;24.00;50.40;;;;;;220076;1268;22561;-62
2022/05/14 07:53:16;;;;;;;5.10;1.50;;;24.00;50.50;;;;;;220028;1268;22535;-59
2022/05/14 07:58:29;;;;;;;4.10;1.70;;;24.10;50.90;;;;;;220041;1268;22811;-60
2022/05/14 08:03:54;;;;;;;2.70;1.50;;;24.10;50.40;;;;;;220352;1268;22528;-59
2022/05/14 08:09:07;;;;;;;3.80;1.60;;;24.10;50.00;;;;;;220328;1268;23143;-61
2022/05/14 08:14:43;;;;;;;2.60;1.60;;;24.10;50.10;;;;;;220299;1267;22551;-61
2022/05/14 08:20:02;;;;;;;3.00;1.50;;;24.10;50.00;;;;;;219994;1268;22550;-61
2022/05/14 08:25:12;;;;;;;2.90;1.60;;;24.20;50.30;;;;;;220051;1267;22685;-61
2022/05/14 08:30:32;;;;;;;4.10;1.60;;;24.20;50.30;;;;;;219793;1267;24225;-61
2022/05/14 08:35:53;;;;;;;4.00;1.30;;;24.20;50.00;;;;;;219797;1267;24422;-60
2022/05/14 08:41:21;;;;;;;2.00;1.30;;;24.30;50.10;;;;;;219807;1270;25411;-59
2022/05/14 08:46:36;;;;;;;2.60;1.60;;;24.30;49.80;;;;;;220030;1267;24389;-60
2022/05/14 08:51:50;;;;;;;2.90;1.60;;;24.30;50.10;;;;;;219941;1268;22544;-61
2022/05/14 08:57:28;;;;;;;2.20;1.40;;;24.30;50.10;;;;;;219600;1270;24309;-59
2022/05/14 09:03:01;;;;;;;4.00;1.90;;;24.40;50.10;;;;;;219873;1267;22538;-57
2022/05/14 09:08:25;;;;;;;4.20;1.50;;;24.40;50.30;;;;;;219795;1267;22547;-62
2022/05/14 09:13:46;;;;;;;3.00;1.70;;;24.40;50.30;;;;;;219510;1270;28175;-61
2022/05/14 09:18:57;;;;;;;2.70;1.50;;;24.40;50.70;;;;;;227653;1268;22271;-55
2022/05/14 09:24:43;;;;;;;21.30;3.60;;;24.30;50.50;;;;;;227712;1271;22380;-61
2022/05/14 09:29:53;;;;;;;10.60;3.10;;;24.40;51.60;;;;;;219889;1267;25287;-60
2022/05/14 09:35:14;;;;;;;11.30;2.90;;;24.50;51.70;;;;;;227717;1268;22332;-62
2022/05/14 09:40:28;;;;;;;6.30;2.50;;;24.50;48.80;;;;;;227759;1267;22394;-62
2022/05/14 09:45:39;;;;;;;7.60;2.70;;;24.40;48.20;;;;;;220657;1267;22544;-63
2022/05/14 09:50:46;;;;;;;17.10;3.00;;;24.40;47.80;;;;;;219521;1268;22599;-63
2022/05/14 09:56:13;;;;;;;8.60;2.80;;;24.40;47.10;;;;;;223601;1268;22573;-65
2022/05/14 10:01:44;;;;;;;11.50;3.20;;;24.30;46.50;;;;;;227827;1268;22439;-62
2022/05/14 10:07:00;;;;;;;10.80;3.00;;;24.50;45.70;;;;;;224176;1268;22538;-66
2022/05/14 10:12:28;;;;;;;14.90;3.50;;;24.60;46.10;;;;;;220376;1268;24289;-67
2022/05/14 10:18:20;;;;;;;13.60;3.30;;;24.70;44.70;;;;;;220185;1270;22564;-67
2022/05/14 10:30:15;;;;;;;6.90;3.00;;;24.70;44.20;;;;;;220022;1270;22560;-66
2022/05/14 10:35:27;;;;;;;8.60;3.80;;;24.70;44.10;;;;;;219633;1268;25228;-60
2022/05/14 10:40:53;;;;;;;13.70;3.10;;;24.70;44.30;;;;;;227795;1271;22393;-61
2022/05/14 10:46:20;;;;;;;9.20;3.60;;;24.70;43.90;;;;;;227768;1270;22398;-60
2022/05/14 10:51:36;;;;;;;7.90;3.00;;;24.80;44.20;;;;;;227801;1268;22400;-61
2022/05/14 10:56:59;;;;;;;10.50;3.20;;;24.80;44.10;;;;;;227727;1269;23178;-58
2022/05/14 11:02:12;;;;;;;12.00;2.90;;;24.70;43.20;;;;;;227743;1270;22231;-57
2022/05/14 11:07:32;;;;;;;13.30;3.10;;;24.70;43.40;;;;;;227573;1270;22431;-61
2022/05/14 11:12:37;;;;;;;9.50;2.60;;;24.70;42.10;;;;;;227727;1268;23063;-61
2022/05/14 11:17:41;;;;;;;10.60;2.70;;;24.70;41.50;;;;;;221199;1267;24133;-55
2022/05/14 11:22:49;;;;;;;9.70;3.40;;;24.80;41.60;;;;;;226080;1268;24404;-60
2022/05/14 11:28:17;;;;;;;10.90;3.00;;;24.70;41.20;;;;;;220025;1268;22764;-62
2022/05/14 11:33:46;;;;;;;13.10;2.90;;;24.70;41.60;;;;;;219816;1268;23020;-60
2022/05/14 11:39:24;;;;;;;7.60;2.60;;;24.60;41.20;;;;;;219964;1268;23673;-63
2022/05/14 11:44:52;;;;;;;14.90;2.60;;;24.70;40.70;;;;;;220225;1268;24315;-61
2022/05/14 11:50:09;;;;;;;9.90;2.70;;;24.80;41.10;;;;;;219910;1268;24247;-58
2022/05/14 11:55:28;;;;;;;11.20;2.60;;;24.80;41.10;;;;;;219731;1268;24280;-63
2022/05/14 12:00:34;;;;;;;9.30;2.60;;;24.90;40.70;;;;;;220112;1268;22526;-60
2022/05/14 12:05:59;;;;;;;12.70;2.50;;;24.90;41.10;;;;;;221284;1268;22696;-58
2022/05/14 12:11:25;;;;;;;8.30;2.30;;;24.90;41.10;;;;;;220529;1268;23261;-63
2022/05/14 12:16:47;;;;;;;6.60;2.70;;;24.90;41.20;;;;;;220186;1268;23949;-65
2022/05/14 12:21:59;;;;;;;11.10;3.10;;;24.90;41.50;;;;;;220092;1268;22544;-63
2022/05/14 12:27:15;;;;;;;8.30;2.40;;;24.90;41.30;;;;;;219854;1268;22520;-63
2022/05/14 12:37:43;;;;;;;7.20;2.70;;;24.90;41.20;;;;;;220138;1268;25355;-63
2022/05/14 12:42:57;;;;;;;7.80;2.70;;;24.90;41.90;;;;;;220014;1268;24284;-64
2022/05/14 12:48:03;;;;;;;6.10;2.30;;;24.90;41.50;;;;;;220251;1267;24761;-62
2022/05/14 12:53:14;;;;;;;5.90;2.60;;;25.00;41.60;;;;;;220303;1267;24440;-63
2022/05/14 12:58:20;;;;;;;7.90;2.80;;;25.00;41.00;;;;;;220276;1267;26485;-64
2022/05/14 13:03:44;;;;;;;6.00;2.80;;;25.00;40.80;;;;;;220361;1267;24251;-64
2022/05/14 13:09:19;;;;;;;7.20;3.20;;;24.90;41.20;;;;;;220422;1267;22528;-64
2022/05/14 13:14:28;;;;;;;5.90;2.90;;;24.90;40.40;;;;;;220346;1267;25367;-63
2022/05/14 13:19:48;;;;;;;5.80;2.50;;;25.00;40.80;;;;;;220576;1267;24419;-64
2022/05/14 13:24:57;;;;;;;7.40;3.10;;;25.00;41.20;;;;;;220342;1267;22878;-64
2022/05/14 13:30:28;;;;;;;4.70;2.40;;;25.00;41.20;;;;;;220350;1267;24282;-63
2022/05/14 13:41:01;;;;;;;5.20;2.80;;;25.00;40.90;;;;;;220466;1268;24412;-63
2022/05/14 13:46:19;;;;;;;5.80;2.40;;;25.00;40.50;;;;;;220245;1267;24271;-63
2022/05/14 13:51:36;;;;;;;4.20;2.00;;;25.00;40.50;;;;;;220238;1267;25246;-63
2022/05/14 13:56:44;;;;;;;5.10;2.20;;;25.00;40.40;;;;;;219885;1268;24476;-63
2022/05/14 14:01:54;;;;;;;5.80;2.20;;;25.00;41.00;;;;;;220318;1268;24279;-63
2022/05/14 14:07:00;;;;;;;4.60;2.10;;;25.00;41.10;;;;;;220537;1268;24370;-62
2022/05/14 14:12:07;;;;;;;7.30;2.30;;;25.00;41.60;;;;;;220557;1270;22667;-62
2022/05/14 14:17:12;;;;;;;7.40;2.60;;;25.00;40.40;;;;;;220052;1270;24690;-61
2022/05/14 14:22:16;;;;;;;6.10;3.00;;;25.00;40.40;;;;;;220236;1270;22679;-61
2022/05/14 14:27:21;;;;;;;6.30;2.40;;;25.00;41.00;;;;;;220272;1270;22681;-61
2022/05/14 14:32:26;;;;;;;5.60;2.30;;;25.00;41.40;;;;;;220444;1270;22620;-61
2022/05/14 14:37:32;;;;;;;4.90;2.40;;;25.00;40.90;;;;;;220194;1269;25342;-63
2022/05/14 14:42:44;;;;;;;5.00;2.40;;;25.00;40.60;;;;;;220026;1270;22554;-63
2022/05/14 14:47:49;;;;;;;7.60;2.30;;;25.00;40.80;;;;;;220334;1267;25320;-63
2022/05/14 14:52:56;;;;;;;3.70;2.30;;;25.00;40.60;;;;;;220178;1270;22842;-63
2022/05/14 14:58:00;;;;;;;4.80;2.30;;;24.90;40.60;;;;;;220088;1270;24227;-65
2022/05/14 15:03:10;;;;;;;5.60;2.40;;;24.90;40.50;;;;;;220601;1267;22535;-63
2022/05/14 15:08:22;;;;;;;5.70;2.20;;;24.90;40.90;;;;;;219805;1270;22699;-65
2022/05/14 15:13:29;;;;;;;4.70;2.40;;;24.90;40.70;;;;;;220260;1269;24268;-62
2022/05/14 15:18:33;;;;;;;5.50;2.20;;;24.90;40.60;;;;;;220619;1267;25852;-63
2022/05/14 15:23:39;;;;;;;5.10;2.10;;;24.90;40.70;;;;;;220447;1267;25263;-63
2022/05/14 15:28:45;;;;;;;4.30;2.30;;;24.90;40.70;;;;;;220596;1267;25237;-62
2022/05/14 15:33:53;;;;;;;5.50;2.30;;;24.90;40.50;;;;;;220494;1267;24975;-63
2022/05/14 15:38:57;;;;;;;3.80;2.10;;;24.90;40.80;;;;;;219963;1270;24483;-62
2022/05/14 15:44:07;;;;;;;6.40;2.40;;;24.80;41.10;;;;;;220301;1270;22691;-62
2022/05/14 15:49:16;;;;;;;6.40;2.60;;;24.80;41.00;;;;;;220492;1267;26217;-63
2022/05/14 15:54:22;;;;;;;3.90;2.30;;;24.80;41.70;;;;;;220405;1267;25376;-64
2022/05/14 15:59:26;;;;;;;4.60;2.40;;;24.80;41.60;;;;;;220584;1267;25283;-63
2022/05/14 16:04:33;;;;;;;4.60;2.30;;;24.80;41.30;;;;;;220370;1267;22534;-63
2022/05/14 16:20:31;;;;;;;4.40;2.00;;;24.70;41.60;;;;;;220293;1267;22659;-61
2022/05/14 16:25:35;;;;;;;4.60;2.40;;;24.70;41.40;;;;;;220313;1267;22550;-62
2022/05/14 16:30:44;;;;;;;6.90;2.50;;;24.70;41.30;;;;;;220475;1267;22551;-61
2022/05/14 16:35:49;;;;;;;9.10;3.10;;;24.70;41.10;;;;;;220244;1270;25393;-63
2022/05/14 16:40:55;;;;;;;5.30;2.10;;;24.70;41.20;;;;;;220259;1270;25493;-62
2022/05/14 16:46:02;;;;;;;5.60;2.50;;;24.70;41.50;;;;;;220047;1267;22547;-63
2022/05/14 16:51:12;;;;;;;10.50;3.40;;;24.70;41.10;;;;;;219912;1270;22540;-64
2022/05/14 16:56:23;;;;;;;5.40;2.50;;;24.70;41.10;;;;;;220603;1267;25332;-64
2022/05/14 17:01:35;;;;;;;5.90;2.70;;;24.60;41.30;;;;;;220487;1267;22589;-62
2022/05/14 17:06:43;;;;;;;5.40;2.30;;;24.60;41.10;;;;;;220508;1267;22560;-64
2022/05/14 17:11:47;;;;;;;4.30;1.90;;;24.60;41.20;;;;;;220167;1267;22623;-63
2022/05/14 17:16:54;;;;;;;4.00;2.20;;;24.70;41.40;;;;;;220195;1267;24420;-63
2022/05/14 17:22:06;;;;;;;6.00;2.40;;;24.60;42.10;;;;;;220209;1268;24275;-63
2022/05/14 17:27:10;;;;;;;6.80;3.10;;;24.60;41.50;;;;;;220641;1267;24190;-65
2022/05/14 17:32:16;;;;;;;4.30;2.40;;;24.60;41.30;;;;;;220672;1267;24447;-63
2022/05/14 17:42:46;;;;;;;4.90;3.00;;;24.60;41.20;;;;;;220426;1270;24324;-62
2022/05/14 17:47:51;;;;;;;7.00;2.30;;;24.50;41.20;;;;;;220531;1267;26610;-63
2022/05/14 17:52:56;;;;;;;5.30;2.50;;;24.50;41.10;;;;;;220707;1268;23156;-63
2022/05/14 17:58:00;;;;;;;5.80;2.60;;;24.50;41.20;;;;;;220599;1267;25492;-64
2022/05/14 18:03:06;;;;;;;5.00;2.70;;;24.50;40.80;;;;;;220425;1267;22567;-64
2022/05/14 18:08:10;;;;;;;8.70;2.90;;;24.50;41.20;;;;;;220134;1267;22716;-65
2022/05/14 18:13:15;;;;;;;9.30;2.70;;;24.50;41.40;;;;;;220628;1267;22649;-63
2022/05/14 18:18:23;;;;;;;6.90;2.90;;;24.50;41.40;;;;;;220511;1267;24263;-63
2022/05/14 18:23:34;;;;;;;6.00;2.80;;;24.50;41.50;;;;;;220127;1270;24269;-63
2022/05/14 18:28:45;;;;;;;8.80;3.30;;;24.40;41.40;;;;;;220510;1267;25462;-64
2022/05/14 18:34:01;;;;;;;10.40;3.50;;;24.40;41.60;;;;;;220575;1270;24212;-64
2022/05/14 18:39:09;;;;;;;7.00;3.00;;;24.40;41.80;;;;;;220173;1270;22586;-64
2022/05/14 18:44:24;;;;;;;8.20;3.00;;;24.40;42.00;;;;;;220080;1268;22794;-63
2022/05/14 18:49:31;;;;;;;8.80;3.00;;;24.30;42.10;;;;;;220721;1267;24212;-63
2022/05/14 18:54:49;;;;;;;11.20;3.50;;;24.30;42.20;;;;;;220434;1267;24405;-64
2022/05/14 18:59:53;;;;;;;8.30;3.40;;;24.30;42.30;;;;;;220591;1267;22701;-63
2022/05/14 19:10:23;;;;;;;6.10;3.10;;;24.20;42.40;;;;;;220539;1267;22712;-63
2022/05/14 19:15:28;;;;;;;8.80;3.60;;;24.20;42.50;;;;;;220217;1267;25227;-64
2022/05/14 19:20:33;;;;;;;14.00;3.30;;;24.20;42.50;;;;;;220129;1267;287988;-64
2022/05/14 19:25:39;;;;;;;7.00;3.40;;;24.20;42.80;;;;;;220259;1267;22592;-63
2022/05/14 19:30:45;;;;;;;6.90;2.90;;;24.10;42.70;;;;;;220579;1267;22533;-62
2022/05/14 19:35:53;;;;;;;13.50;3.30;;;24.10;42.70;;;;;;220136;1270;23026;-64
2022/05/14 19:41:14;;;;;;;9.70;3.60;;;24.10;42.80;;;;;;220082;1268;22542;-62
2022/05/14 19:46:23;;;;;;;7.10;2.90;;;24.10;42.80;;;;;;220297;1267;24293;-62
2022/05/14 19:51:28;;;;;;;8.30;3.40;;;24.10;42.90;;;;;;220182;1267;24401;-64
2022/05/14 19:56:32;;;;;;;7.40;3.70;;;24.10;43.00;;;;;;220443;1268;24293;-65
2022/05/14 20:01:36;;;;;;;9.60;3.80;;;24.00;42.90;;;;;;220651;1267;22555;-61
2022/05/14 20:06:42;;;;;;;12.60;3.60;;;24.00;43.10;;;;;;220632;1267;24428;-66
2022/05/14 20:11:45;;;;;;;10.50;3.40;;;24.00;43.10;;;;;;220143;1270;22656;-62
2022/05/14 20:22:15;;;;;;;12.50;4.60;;;23.90;43.30;;;;;;220189;1267;22686;-65
2022/05/14 20:27:21;;;;;;;8.10;4.40;;;23.90;43.60;;;;;;220142;1270;22534;-63
2022/05/14 20:32:27;;;;;;;10.10;4.50;;;23.90;43.40;;;;;;220491;1270;23392;-63
2022/05/14 20:37:35;;;;;;;7.30;3.60;;;23.90;43.50;;;;;;220424;1271;24204;-64
2022/05/14 20:42:42;;;;;;;19.20;4.30;;;23.90;43.80;;;;;;220321;1267;22666;-63
2022/05/14 20:47:58;;;;;;;17.30;4.00;;;23.80;43.50;;;;;;220291;1268;22650;-62
2022/05/14 20:53:04;;;;;;;16.70;4.80;;;23.90;44.30;;;;;;220230;1268;25305;-62
2022/05/14 20:58:10;;;;;;;15.40;3.90;;;23.90;44.80;;;;;;220184;1268;22698;-63
2022/05/14 21:03:18;;;;;;;14.80;4.20;;;24.00;46.80;;;;;;220132;1271;22757;-63
2022/05/14 21:08:26;;;;;;;25.30;4.80;;;24.00;46.60;;;;;;219995;1271;22550;-63
2022/05/14 21:13:33;;;;;;;;;;;24.00;47.10;;;;;;220092;1271;22660;-62
2022/05/14 21:18:42;;;;;;;17.70;4.00;;;24.10;47.00;;;;;;220052;1268;24473;-64
2022/05/14 21:23:54;;;;;;;12.20;4.50;;;24.00;47.60;;;;;;220189;1271;24444;-64
2022/05/14 21:29:03;;;;;;;15.50;4.40;;;24.00;47.20;;;;;;220115;1271;25347;-64
2022/05/14 21:39:30;;;;;;;18.20;5.40;;;24.00;47.50;;;;;;220385;1268;24665;-58
2022/05/14 21:44:34;;;;;;;22.60;5.20;;;24.00;49.60;;;;;;219935;1271;22559;-62
2022/05/14 21:49:39;;;;;;;22.50;5.80;;;24.10;51.90;;;;;;220253;1271;22795;-64
2022/05/14 21:54:47;;;;;;;24.40;5.20;;;24.10;51.40;;;;;;219853;1268;24425;-62
2022/05/14 21:59:58;;;;;;;19.40;5.90;;;24.10;52.80;;;;;;219792;1271;22572;-63
2022/05/14 22:05:20;;;;;;;23.90;5.30;;;24.10;52.70;;;;;;219860;1271;25414;-62
2022/05/14 22:10:27;;;;;;;18.00;4.80;;;24.10;53.00;;;;;;219903;1269;22604;-63
2022/05/14 22:15:31;;;;;;;22.60;5.00;;;24.10;51.70;;;;;;219926;1268;24408;-60
2022/05/14 22:20:35;;;;;;;16.60;4.80;;;24.10;50.90;;;;;;220099;1268;25528;-60
2022/05/14 22:25:40;;;;;;;12.40;5.50;;;24.10;51.00;;;;;;220184;1268;25277;-63
2022/05/14 22:30:46;;;;;;;16.60;4.50;;;24.10;50.20;;;;;;219964;1268;22759;-63
2022/05/14 22:35:50;;;;;;;13.10;5.10;;;24.10;49.80;;;;;;220153;1268;25297;-63
2022/05/14 22:40:57;;;;;;;17.40;4.80;;;24.10;49.50;;;;;;220015;1268;22562;-61
2022/05/14 22:46:01;;;;;;;15.90;5.10;;;24.10;49.20;;;;;;220062;1268;24348;-61
2022/05/14 22:51:11;;;;;;;11.70;5.10;;;24.10;49.00;;;;;;220310;1268;25449;-63
2022/05/14 22:56:18;;;;;;;16.00;5.10;;;24.10;49.20;;;;;;220371;1268;24218;-60
2022/05/14 23:01:23;;;;;;;11.40;4.50;;;24.10;48.60;;;;;;219978;1268;22535;-60
2022/05/14 23:06:32;;;;;;;17.30;5.30;;;24.10;48.40;;;;;;219787;1268;22846;-63
2022/05/14 23:11:36;;;;;;;11.80;5.20;;;24.10;48.20;;;;;;220053;1268;22573;-61
2022/05/14 23:16:44;;;;;;;10.90;5.00;;;24.00;48.10;;;;;;219928;1268;24411;-61
2022/05/14 23:21:52;;;;;;;9.20;4.20;;;24.00;48.00;;;;;;220105;1268;25455;-63
2022/05/14 23:26:55;;;;;;;11.20;4.60;;;24.00;47.80;;;;;;219624;1268;22633;-56
2022/05/14 23:32:00;;;;;;;7.60;4.40;;;24.00;47.80;;;;;;221148;1268;22566;-63
2022/05/14 23:37:04;;;;;;;10.60;4.60;;;24.00;48.70;;;;;;219980;1270;24221;-62
2022/05/14 23:42:08;;;;;;;10.50;4.50;;;24.00;48.50;;;;;;220064;1271;22545;-62
2022/05/14 23:47:12;;;;;;;10.20;4.80;;;24.00;48.30;;;;;;220035;1268;22557;-64
2022/05/14 23:52:17;;;;;;;11.60;4.00;;;24.00;48.50;;;;;;220191;1269;22576;-61
2022/05/14 23:57:24;;;;;;;13.30;4.10;;;24.00;48.60;;;;;;220272;1268;25350;-63
